Latest Weather Observations for Mackay

IDQ60801

Issued at 10:32 pm EST Sunday 24 July 2016 (issued every 30 minutes, with the page automatically refreshed every 10 minutes)

About weather observations | Map of weather stations | Latest weather observations for QLD | Other Formats
Station Details ID: 033119 Name: MACKAY M.O Lat: -21.12 Lon: 149.22 Height: 30.26 m
Data from the previous 72 hours. | See also: Recent months at Mackay
Date/Time
EST
Temp
°C
App
Temp
°C
Dew
Point
°C
Rel
Hum
%
Delta-T
°C
Wind Press
QNH
hPa
Press
MSL
hPa
Rain since
9am
mm
Dir  Spd
km/h
Gust
km/h
Spd
kts
Gust
kts
24/10:30pm 20.6 22.6 20.0 96 0.4 W 9 11 5 6 1016.1 1016.0 0.0
24/10:00pm 20.8 22.9 20.2 96 0.4 WSW 9 11 5 6 1016.1 1016.0 0.0
24/09:30pm 20.9 23.4 20.3 96 0.4 W 7 9 4 5 1016.1 1016.0 0.0
24/09:00pm 21.0 23.7 20.2 95 0.5 WNW 6 7 3 4 1015.8 1015.7 0.0
24/08:30pm 21.1 23.3 20.3 95 0.5 NW 9 11 5 6 1015.6 1015.5 0.0
24/08:00pm 21.0 23.6 20.4 96 0.4 NNW 7 11 4 6 1015.3 1015.2 0.0
24/07:30pm 21.2 23.4 20.4 95 0.5 NNW 9 11 5 6 1015.1 1015.0 0.0
24/07:00pm 21.4 23.6 20.5 95 0.6 NNW 9 11 5 6 1014.7 1014.6 0.0
24/06:30pm 21.6 23.8 20.4 93 0.8 N 9 13 5 7 1014.3 1014.2 0.0
24/06:00pm 21.9 23.7 20.4 91 1.0 N 11 15 6 8 1014.1 1014.0 0.0
24/05:30pm 22.5 24.2 20.2 87 1.5 N 11 19 6 10 1013.9 1013.8 0.0
24/05:00pm 23.4 24.5 19.7 80 2.4 N 13 19 7 10 1013.7 1013.6 0.0
24/04:30pm 24.2 25.1 19.2 73 3.2 N 13 20 7 11 1013.5 1013.4 0.0
24/04:00pm 24.8 26.1 19.3 71 3.5 N 11 17 6 9 1013.3 1013.2 0.0
24/03:30pm 25.3 25.9 18.7 67 4.2 N 13 20 7 11 1013.2 1013.1 0.0
24/03:00pm 26.0 26.6 18.6 63 4.7 N 13 22 7 12 1013.1 1013.0 0.0
24/02:30pm 26.6 27.5 18.4 60 5.2 N 11 17 6 9 1013.4 1013.3 0.0
24/02:00pm 26.8 28.1 19.2 63 4.9 N 11 17 6 9 1013.6 1013.5 0.0
24/01:30pm 26.7 27.4 18.9 62 5.0 N 13 20 7 11 1013.8 1013.7 0.0
24/01:00pm 27.5 28.6 18.8 59 5.6 N 11 17 6 9 1014.2 1014.1 0.0
24/12:30pm 27.2 28.0 18.2 58 5.7 N 11 17 6 9 1014.7 1014.6 0.0
24/12:00pm 26.8 29.0 20.4 68 4.2 NNW 9 15 5 8 1015.2 1015.1 0.0
24/11:30am 27.0 29.8 21.6 72 3.6 N 9 17 5 9 1015.6 1015.5 0.0
24/11:00am 26.5 29.1 21.2 72 3.5 N 9 15 5 8 1016.0 1015.9 0.0
24/10:30am 24.9 26.3 19.5 72 3.5 NNW 11 20 6 11 1016.2 1016.1 0.0
24/10:00am 23.8 25.9 20.1 80 2.4 NW 9 15 5 8 1016.6 1016.5 0.0
24/09:30am 22.5 25.2 20.7 89 1.2 WNW 7 11 4 6 1016.5 1016.4 0.0
24/09:00am 21.3 23.8 20.2 93 0.7 NW 7 11 4 6 1016.5 1016.4 0.2
24/08:30am 19.9 22.3 19.7 99 0.1 W 6 9 3 5 1016.3 1016.2 0.2
24/08:00am 18.7 20.6 18.5 99 0.1 WSW 6 7 3 4 1016.1 1016.0 0.2
24/07:30am 18.1 20.1 17.9 99 0.1 NNW 4 7 2 4 1016.0 1015.9 0.2
24/07:15am 17.4 19.9 17.2 99 0.1 CALM 0 0 0 0 1015.9 1015.8 0.2
24/07:00am 17.6 19.4 17.4 99 0.1 NW 4 7 2 4 1015.6 1015.5 0.2
24/06:30am 17.7 19.6 17.7 100 0.0 WNW 4 7 2 4 1015.2 1015.1 0.2
24/06:00am 18.3 19.9 18.3 100 0.0 NW 7 9 4 5 1014.8 1014.7 0.2
24/05:30am 18.5 19.7 18.3 99 0.1 NW 9 11 5 6 1014.5 1014.4 0.0
24/05:00am 18.7 20.4 18.5 99 0.1 NW 7 11 4 6 1014.2 1014.1 0.0
24/04:30am 19.2 20.7 19.0 99 0.1 NNW 9 11 5 6 1014.0 1013.9 0.0
24/04:00am 18.9 20.7 18.7 99 0.1 N 7 9 4 5 1014.0 1013.9 0.0
24/03:30am 18.7 20.4 18.4 98 0.2 NW 7 9 4 5 1013.9 1013.8 0.0
24/03:00am 19.0 21.8 18.8 99 0.1 W 2 6 1 3 1013.9 1013.8 0.0
24/02:30am 18.9 20.3 18.6 98 0.2 W 9 9 5 5 1013.8 1013.7 0.0
24/02:00am 18.7 20.0 18.4 98 0.2 WSW 9 11 5 6 1013.9 1013.8 0.0
24/01:56am 18.6 19.9 18.4 99 0.1 WSW 9 11 5 6 1013.9 1013.8 0.0
24/01:30am 18.6 20.3 18.4 99 0.1 SW 7 9 4 5 1013.9 1013.8 0.0
24/01:00am 19.2 21.1 18.9 98 0.2 WSW 7 11 4 6 1014.1 1014.0 0.0
24/12:30am 19.4 21.4 19.1 98 0.2 SW 7 9 4 5 1014.4 1014.3 0.0
24/12:00am 19.3 21.4 19.0 98 0.2 W 6 7 3 4 1014.5 1014.4 0.0
 
Date/Time
EST
Temp
°C
App
Temp
°C
Dew
Point
°C
Rel
Hum
%
Delta-T
°C
Wind Press
QNH
hPa
Press
MSL
hPa
Rain since
9am
mm
Dir  Spd
km/h
Gust
km/h
Spd
kts
Gust
kts
23/11:30pm 19.6 21.7 19.4 99 0.1 W 7 9 4 5 1014.5 1014.4 0.0
23/11:00pm 19.6 21.7 19.3 98 0.2 WSW 7 7 4 4 1014.5 1014.4 0.0
23/10:30pm 19.8 22.5 19.5 98 0.2 WNW 4 9 2 5 1014.7 1014.6 0.0
23/10:00pm 20.3 22.3 20.0 98 0.2 NW 9 11 5 6 1014.5 1014.4 0.0
23/09:30pm 20.0 22.2 19.5 97 0.3 NNW 7 9 4 5 1014.6 1014.5 0.0
23/09:00pm 20.2 22.1 19.7 97 0.3 NNW 9 11 5 6 1014.5 1014.4 0.0
23/08:30pm 20.3 22.2 19.8 97 0.3 N 9 11 5 6 1014.1 1014.0 0.0
23/08:00pm 20.5 22.5 19.9 96 0.4 N 9 11 5 6 1013.8 1013.7 0.0
23/07:30pm 20.5 22.4 19.7 95 0.5 N 9 11 5 6 1013.7 1013.6 0.0
23/07:00pm 20.7 22.8 20.1 96 0.4 N 9 11 5 6 1013.3 1013.2 0.0
23/06:30pm 21.0 23.1 20.1 95 0.6 N 9 13 5 7 1012.9 1012.8 0.0
23/06:00pm 21.3 23.0 20.1 93 0.8 N 11 17 6 9 1012.7 1012.6 0.0
23/05:30pm 21.8 23.8 19.9 89 1.2 N 9 13 5 7 1012.6 1012.5 0.0
23/05:00pm 22.8 23.7 19.2 80 2.3 N 13 19 7 10 1012.5 1012.4 0.0
23/04:30pm 23.5 24.6 18.9 75 2.9 N 11 17 6 9 1012.3 1012.2 0.0
23/04:00pm 24.2 24.8 18.7 71 3.5 N 13 19 7 10 1012.2 1012.1 0.0
23/03:30pm 25.1 26.5 19.5 71 3.6 N 11 20 6 11 1012.3 1012.2 0.0
23/03:00pm 25.1 26.0 19.3 70 3.7 N 13 22 7 12 1012.5 1012.4 0.0
23/02:30pm 25.1 25.8 18.8 68 4.0 N 13 20 7 11 1012.8 1012.7 0.0
23/02:00pm 26.3 27.5 19.8 67 4.2 N 13 22 7 12 1013.2 1013.1 0.0
23/01:30pm 25.4 25.5 19.2 68 4.0 N 17 24 9 13 1013.4 1013.3 0.0
23/01:00pm 25.9 27.0 19.6 68 4.1 N 13 20 7 11 1013.8 1013.7 0.0
23/12:30pm 25.2 25.7 20.0 73 3.4 N 17 24 9 13 1014.3 1014.2 0.0
23/12:00pm 25.4 27.0 20.7 75 3.1 N 13 20 7 11 1014.8 1014.7 0.0
23/11:30am 23.7 25.7 20.0 80 2.4 N 9 15 5 8 1015.3 1015.2 0.0
23/11:07am 23.5 25.5 19.9 80 2.3 NW 9 13 5 7 1015.5 1015.4 0.0
23/11:00am 23.6 25.2 19.9 80 2.4 NNW 11 17 6 9 1015.6 1015.5 0.0
23/10:30am 23.0 25.2 20.4 85 1.7 NNW 9 17 5 9 1015.9 1015.8 0.0
23/10:00am 22.8 25.5 21.3 91 1.0 N 9 15 5 8 1016.1 1016.0 0.0
23/09:30am 20.9 23.3 20.0 95 0.6 NW 7 13 4 7 1016.5 1016.4 0.0
23/09:16am 20.5 22.4 19.7 95 0.5 NW 9 13 5 7 1016.5 1016.4 0.0
23/09:05am 20.8 23.3 20.3 97 0.3 WNW 7 11 4 6 1016.4 1016.3 0.0
23/09:00am 20.7 23.3 20.1 96 0.4 WNW 6 11 3 6 1016.4 1016.3 -
23/08:30am 19.2 21.1 18.9 98 0.2 WSW 7 11 4 6 1016.2 1016.1 -
23/08:00am 18.6 20.4 18.4 99 0.1 W 6 11 3 6 1016.0 1015.9 -
23/07:30am 18.2 20.6 18.0 99 0.1 W 2 9 1 5 1015.8 1015.7 -
23/07:00am 17.9 19.4 17.7 99 0.1 WNW 6 9 3 5 1015.2 1015.1 -
23/06:59am 17.9 19.2 17.6 98 0.2 WNW 7 9 4 5 1015.2 1015.1 -
23/06:30am 17.8 18.7 17.6 99 0.1 W 9 11 5 6 1014.8 1014.7 -
23/06:00am 17.8 18.7 17.6 99 0.1 W 9 13 5 7 1014.6 1014.5 -
23/05:32am 17.5 18.0 17.5 100 0.0 WSW 11 17 6 9 1014.5 1014.4 -
23/05:30am 17.5 18.0 17.5 100 0.0 WSW 11 17 6 9 1014.5 1014.4 -
23/05:00am 17.3 18.1 17.3 100 0.0 WSW 9 13 5 7 1014.2 1014.1 -
23/04:30am 17.2 17.6 17.2 100 0.0 SW 11 15 6 8 1013.9 1013.8 -
23/04:00am 17.3 18.1 17.3 100 0.0 SW 9 17 5 9 1013.9 1013.8 -
23/03:30am 17.2 17.6 17.2 100 0.0 SW 11 15 6 8 1013.9 1013.8 -
23/03:00am 17.2 17.6 17.2 100 0.0 SW 11 15 6 8 1014.0 1013.9 0.0
23/02:30am 17.3 17.7 17.3 100 0.0 SW 11 13 6 7 1014.1 1014.0 -
23/02:00am 17.3 17.7 17.3 100 0.0 SW 11 15 6 8 1014.2 1014.1 -
23/01:30am 17.7 18.6 17.5 99 0.1 SW 9 11 5 6 1014.5 1014.4 -
23/01:00am 17.9 19.3 17.7 99 0.1 SW 7 9 4 5 1014.8 1014.7 -
23/12:30am 18.2 19.3 18.0 99 0.1 WSW 9 11 5 6 1015.0 1014.9 -
23/12:00am 18.4 19.6 18.2 99 0.1 WSW 9 13 5 7 1015.1 1015.0 -
 
Date/Time
EST
Temp
°C
App
Temp
°C
Dew
Point
°C
Rel
Hum
%
Delta-T
°C
Wind Press
QNH
hPa
Press
MSL
hPa
Rain since
9am
mm
Dir  Spd
km/h
Gust
km/h
Spd
kts
Gust
kts
22/11:30pm 18.6 20.2 18.3 98 0.2 WSW 7 11 4 6 1015.3 1015.2 -
22/11:01pm 18.9 20.7 18.7 99 0.1 WSW 7 9 4 5 1015.2 1015.1 -
22/11:00pm 18.9 20.7 18.7 99 0.1 SW 7 9 4 5 1015.2 1015.1 -
22/10:34pm 19.1 20.9 18.8 98 0.2 SW 7 7 4 4 1015.3 1015.2 -
22/10:30pm 19.1 20.9 18.8 98 0.2 SW 7 7 4 4 1015.3 1015.2 -
22/10:20pm 19.1 20.9 18.8 98 0.2 SW 7 9 4 5 1015.4 1015.3 -
22/10:00pm 19.0 20.8 18.7 98 0.2 SW 7 9 4 5 1015.4 1015.3 -
22/09:30pm 19.1 20.8 18.6 97 0.3 SW 7 9 4 5 1015.2 1015.1 -
22/09:00pm 19.6 21.6 19.1 97 0.3 SW 7 9 4 5 1015.1 1015.0 0.0
22/08:30pm 19.6 21.6 19.1 97 0.3 WSW 7 9 4 5 1015.2 1015.1 -
22/08:00pm 19.8 23.1 19.2 96 0.4 CALM 0 0 0 0 1015.1 1015.0 -
22/07:30pm 20.0 23.1 19.4 96 0.4 N 2 6 1 3 1015.2 1015.1 -
22/07:00pm 19.9 22.2 19.4 97 0.3 N 6 9 3 5 1015.0 1014.9 -
22/06:30pm 20.2 22.3 19.4 95 0.5 NNE 7 11 4 6 1014.7 1014.6 -
22/06:00pm 20.4 22.6 19.5 95 0.6 NNE 7 11 4 6 1014.5 1014.4 -
22/05:30pm 21.1 23.4 19.5 90 1.0 NNE 6 11 3 6 1014.5 1014.4 -
22/05:00pm 22.2 24.4 19.7 86 1.6 NNE 7 13 4 7 1014.5 1014.4 -
22/04:30pm 22.7 25.0 19.9 84 1.8 NNE 7 13 4 7 1014.5 1014.4 -
22/04:00pm 23.0 24.9 19.7 82 2.1 NE 9 17 5 9 1014.5 1014.4 -
22/03:30pm 22.4 24.0 19.9 86 1.6 ENE 11 15 6 8 1014.5 1014.4 -
22/03:00pm 22.1 23.2 19.6 86 1.6 E 13 17 7 9 1014.5 1014.4 -
22/02:30pm 22.6 23.7 19.6 83 1.9 E 13 17 7 9 1014.6 1014.5 -
22/02:00pm 22.2 23.6 19.5 85 1.7 ESE 11 15 6 8 1014.8 1014.7 -
22/01:30pm 21.5 22.7 19.1 86 1.5 E 11 15 6 8 1015.2 1015.1 -
22/01:00pm 21.7 23.0 19.2 86 1.6 E 11 17 6 9 1015.5 1015.4 -
22/12:30pm 22.5 23.9 19.5 83 1.9 ESE 11 17 6 9 1015.9 1015.8 -
22/12:00pm 22.1 23.8 19.3 84 1.8 ESE 9 15 5 8 1016.3 1016.2 -
22/11:30am 22.1 23.6 18.9 82 2.0 SE 9 15 5 8 1016.7 1016.6 -
22/11:00am 22.5 24.6 19.4 82 2.0 SE 7 13 4 7 1017.0 1016.9 -
22/10:30am 22.6 24.4 19.5 82 2.0 SSE 9 13 5 7 1017.3 1017.2 -
22/10:00am 22.1 24.5 20.1 88 1.3 S 7 9 4 5 1017.5 1017.4 -
22/09:30am 21.0 22.8 19.6 92 0.9 SSW 9 15 5 8 1017.6 1017.5 -
22/09:00am 19.7 21.3 19.1 96 0.4 SW 9 15 5 8 1017.6 1017.5 0.4
22/08:30am 18.6 19.8 18.3 98 0.2 SW 9 13 5 7 1017.4 1017.3 0.4
22/08:00am 17.8 18.4 17.6 99 0.1 SW 11 15 6 8 1017.4 1017.3 0.4
22/07:30am 17.0 16.8 16.8 99 0.1 WSW 13 17 7 9 1017.2 1017.1 0.4
22/07:00am 16.6 16.3 16.4 99 0.1 SW 13 17 7 9 1017.1 1017.0 0.4
22/06:30am 16.7 16.4 16.5 99 0.1 WSW 13 17 7 9 1016.9 1016.8 0.4
22/06:00am 16.9 16.7 16.7 99 0.1 WSW 13 17 7 9 1016.8 1016.7 0.4
22/05:30am 16.9 16.7 16.7 99 0.1 SW 13 17 7 9 1016.4 1016.3 0.2
22/05:00am 17.1 17.4 16.9 99 0.1 SW 11 15 6 8 1016.4 1016.3 0.2
22/04:30am 17.2 17.5 17.0 99 0.1 WSW 11 15 6 8 1016.3 1016.2 0.2
22/04:00am 17.2 17.2 17.2 100 0.0 SW 13 15 7 8 1016.4 1016.3 0.2
22/03:36am 17.3 17.6 17.1 99 0.1 SW 11 15 6 8 1016.5 1016.4 0.2
22/03:30am 17.4 17.8 17.2 99 0.1 SW 11 15 6 8 1016.5 1016.4 0.2
22/03:22am 17.4 17.8 17.2 99 0.1 SW 11 15 6 8 1016.5 1016.4 0.2
22/03:00am 17.4 17.8 17.2 99 0.1 SW 11 13 6 7 1016.7 1016.6 0.2
22/02:30am 17.6 18.2 17.6 100 0.0 SW 11 13 6 7 1016.9 1016.8 0.2
22/02:00am 17.8 18.3 17.5 98 0.2 SW 11 13 6 7 1017.0 1016.9 0.2
22/01:30am 18.0 18.6 17.7 98 0.2 SW 11 13 6 7 1017.2 1017.1 0.2
22/01:00am 18.1 18.7 17.8 98 0.2 SW 11 15 6 8 1017.5 1017.4 0.2
22/12:30am 18.1 18.8 17.9 99 0.1 SW 11 13 6 7 1017.6 1017.5 0.2
22/12:00am 18.1 18.7 17.8 98 0.2 SW 11 13 6 7 1017.6 1017.5 0.2
 
Date/Time
EST
Temp
°C
App
Temp
°C
Dew
Point
°C
Rel
Hum
%
Delta-T
°C
Wind Press
QNH
hPa
Press
MSL
hPa
Rain since
9am
mm
Dir  Spd
km/h
Gust
km/h
Spd
kts
Gust
kts
21/11:30pm 18.1 19.1 17.8 98 0.2 SW 9 13 5 7 1017.9 1017.8 0.2
21/11:00pm 18.1 18.7 17.8 98 0.2 SW 11 15 6 8 1018.0 1017.9 0.2
21/10:52pm 18.2 18.9 17.9 98 0.2 SW 11 13 6 7 1018.0 1017.9 0.2

Other Formats:

Comma delimited format used in spreadsheet applications
http://www.bom.gov.au/fwo/IDQ60801/IDQ60801.94367.axf

JavaScript Object Notation format (JSON) in row-major order
http://www.bom.gov.au/fwo/IDQ60801/IDQ60801.94367.json